Lisboa, Portugal

05:20 AM WET em 09 de Fevereiro de 2016 (GMT +0000)
Lisbon | | Change Station
CLOSE
Current Station
Aeroporto
Location: Lisbon,
Altitude: 404 ft
Estações Meteorológicas Próximas

Elev 404 ft 38.78 °N, 9.14 °W | Updated 20 minutes ago

Mostly Cloudy
Muito Nublado
57 °F
Aparente 57 °F
N
8
Vento Variável Vento de OSO

Hoje
Máxima -- | Mínima -- °F
--% Possibilidade de Precip.
Ontem
Máxima -- | Mínima -- °F
Precip. -- pol
Pressão 30.27 pol
Visibilidade 6.2 milhas
Nuvens Poucas 3200 ft
Muito Nublado 4200 ft
Ponto de Orvalho 54 °F
Humidade 88%
Chuva 0.00 pol
Altura de Neve Não disponível
7:35 AM 6:06 PM
Lua nova, 0% visible
METAR LPPT 090500Z 24007KT 9999 FEW032 BKN042 14/12 Q1025
Pressão 30.27 pol
Visibilidade 6.2 milhas
Nuvens Poucas 3200 ft
Muito Nublado 4200 ft
Ponto de Orvalho 54 °F
Humidade 88%
Chuva 0.00 pol
Altura de Neve Não disponível
7:35 AM 6:06 PM
Lua nova, 0% visible
METAR LPPT 090500Z 24007KT 9999 FEW032 BKN042 14/12 Q1025

10-Day Weather Forecast

Almanac

Astronomia

Feb. 09, 2016 Nascer Pôr
Hora atual
Crepúsculo civil
Crepúsculo náutico
Crepúsculo astronómico
Lua
Comprimento da luz visível
Duração do Dia
Tomorrow will be .
, % of the Moon is Illuminated

Extremos de Hoje

Altitude na localidade Altura mais baixa na localidade

Community

WunderPhotos

Upload Photos

1,891,549 fotografias inseridas!

WunderBlog® & News

Nearby

Qualidade do Ar

  Qualidade do Ar Índice da Q.A. Poluente
Not available.

Altura da Neve

Estação altura Altitude

Actividade Sísmisca

Cidade Distância Mag. Hora & Data
Mínima magnitude apresentada é 2.5.

Temperaturas das Águas Costeiras

Local Temperatura

Stations

Estações Meteorológicas Próximas

Localização da Estação Temp. Sensação Térmica Ponto de Orvalho Humidade Vento Precip. Elev Actualizado Tipo